• Join FlightAware (Why Join?)
  • Login
  • US Flag 
05:29AM EDT


 

Airport Tracker/Info


-or-


 

Live Flight TrackerFlight Track Log ✈ SWA3206 ✈ 05-May-2013 ✈ KPHL - KMDW

Flight Track Log - Related Links

Times and Time Zones

All times are in EDT time to prevent confusion due to time zone crossing. See the SWA3206 flight status page for this flight to view local times or setup timezone preferences in your user account.

Time Position Orientation Groundspeed Altitude Reporting Facility
EDT Latitude Longitude Course Direction KTS MPH feet Rate Location/Type
11:13AM 39.8833 -75.2167 72° East 151 174 700  Level Philadelphia TRACON
11:14AM 39.9000 -75.1500 72° East 211 243 3,100 2,460 Climbing Philadelphia TRACON
11:15AM 39.9500 -75.1333 14° North 246 283 6,400 2,700 Climbing Philadelphia TRACON
11:16AM 40.0000 -75.2167 308° West 300 345 8,800 1,860 Climbing Philadelphia TRACON
11:17AM 40.0500 -75.3000 308° West 312 359 10,000 1,800 Climbing Philadelphia TRACON
11:18AM 40.1144 -75.3958 311° West 373 429 12,500 1,380 Climbing New York Center
11:19AM 40.1714 -75.4867 309° West 362 417 13,000 1,320 Climbing New York Center
11:20AM 40.2461 -75.5950 312° West 362 417 15,100 2,520 Climbing New York Center
11:21AM 40.3092 -75.6894 311° West 379 436 18,000 2,580 Climbing New York Center
11:22AM 40.3836 -75.7981 312° West 392 451 20,400 2,700 Climbing New York Center
11:23AM 40.4464 -75.9364 301° West 398 458 23,500 2,700 Climbing New York Center
11:24AM 40.4708 -76.0936 282° West 408 470 25,900 2,220 Climbing New York Center
11:25AM 40.4947 -76.2511 281° West 426 490 27,900 1,800 Climbing New York Center
11:26AM 40.5136 -76.3811 281° West 442 509 29,500 2,220 Climbing New York Center
11:27AM 40.5400 -76.5689 281° West 447 514 32,400 2,460 Climbing New York Center
11:28AM 40.5639 -76.7211 282° West 447 514 34,500 1,740 Climbing New York Center
11:29AM 40.5872 -76.8736 281° West 435 501 36,000 720 Climbing New York Center
11:30AM 40.6083 -77.0286 280° West 428 493 36,000  Level New York Center
11:31AM 40.6294 -77.1811 280° West 428 493 36,000  Level New York Center
11:32AM 40.6525 -77.3308 282° West 428 493 36,000  Level New York Center
11:33AM 40.6731 -77.4833 280° West 428 493 36,000  Level New York Center
11:36AM 40.7175 -77.8217 280° West 430 495 36,000  Level Cleveland Center
11:37AM 40.7378 -77.9769 280° West 425 489 36,000  Level Cleveland Center
11:38AM 40.7600 -78.1325 281° West 431 496 36,000  Level Cleveland Center
11:39AM 40.7800 -78.2881 280° West 431 496 36,000  Level Cleveland Center
11:40AM 40.7997 -78.4436 280° West 431 496 36,000  Level Cleveland Center
11:41AM 40.8214 -78.5994 280° West 431 496 36,000  Level Cleveland Center
11:42AM 40.8406 -78.7525 279° West 431 496 36,000  Level Cleveland Center
11:43AM 40.8661 -78.9219 281° West 426 490 36,000  Level Cleveland Center
11:44AM 40.8850 -79.0781 279° West 431 496 36,000  Level Cleveland Center
11:45AM 40.9036 -79.2342 279° West 431 496 36,000  Level Cleveland Center
11:46AM 40.9239 -79.3878 280° West 431 496 36,000  Level Cleveland Center
11:47AM 40.9400 -79.5442 278° West 426 490 36,000  Level Cleveland Center
11:48AM 40.9603 -79.7006 280° West 426 490 36,000  Level Cleveland Center
11:49AM 40.9781 -79.8597 278° West 426 490 36,000  Level Cleveland Center
11:50AM 40.9956 -80.0192 278° West 431 496 36,000  Level Cleveland Center
11:51AM 41.0150 -80.1786 279° West 437 503 36,000  Level Cleveland Center
11:52AM 41.0322 -80.3381 278° West 443 510 36,000  Level Cleveland Center
11:53AM 41.0511 -80.4978 279° West 443 510 36,000  Level Cleveland Center
11:54AM 41.0678 -80.6575 278° West 443 510 36,000  Level Cleveland Center
11:55AM 41.0864 -80.8144 279° West 443 510 36,000  Level Cleveland Center
11:56AM 41.1006 -80.9744 277° West 448 516 36,000  Level Cleveland Center
11:57AM 41.1144 -81.1206 277° West 448 516 36,000  Level Cleveland Center
11:58AM 41.1322 -81.2806 278° West 448 516 36,000  Level Cleveland Center
11:59AM 41.1542 -81.4600 279° West 448 516 36,000  Level Cleveland Center
12:00PM 41.1694 -81.6203 277° West 448 516 36,000  Level Cleveland Center
12:01PM 41.1864 -81.7861 278° West 448 516 36,000  Level Cleveland Center
12:02PM 41.2014 -81.9492 277° West 448 516 36,000  Level Cleveland Center
12:03PM 41.2181 -82.1125 278° West 448 516 36,000  Level Cleveland Center
12:04PM 41.2303 -82.2783 276° West 448 516 36,000  Level Cleveland Center
12:05PM 41.2447 -82.4222 278° West 443 510 36,000  Level Cleveland Center
12:06PM 41.2586 -82.5831 277° West 443 510 36,000  Level Cleveland Center
12:07PM 41.2744 -82.7464 277° West 448 516 36,000  Level Cleveland Center
12:08PM 41.2881 -82.9044 277° West 442 509 36,000  Level Cleveland Center
12:09PM 41.3033 -83.0653 277° West 447 514 36,000  Level Cleveland Center
12:10PM 41.3144 -83.2261 275° West 441 507 36,000  Level Cleveland Center
12:11PM 41.3272 -83.3897 276° West 441 507 36,000  Level Cleveland Center
12:12PM 41.3442 -83.5481 278° West 446 513 36,000  Level Cleveland Center
12:13PM 41.3564 -83.7119 276° West 446 513 36,000  Level Cleveland Center
12:15PM 41.3839 -84.0231 277° West 446 513 36,000  Level Chicago Center
12:16PM 41.3972 -84.1867 276° West 446 513 36,000 -1,200 Level Chicago Center
12:17PM 41.4122 -84.3817 276° West 442 509 33,600 -2,040 Descending Chicago Center
12:18PM 41.4242 -84.5414 276° West 435 501 31,800 -1,800 Descending Chicago Center
12:19PM 41.4350 -84.6914 276° West 411 473 30,000 -900 Descending Chicago Center
12:20PM 41.4464 -84.8444 276° West 414 476 30,000 -300 Level Chicago Center
12:21PM 41.4572 -85.0000 275° West 419 482 29,400 -1,800 Descending Chicago Center
12:22PM 41.4675 -85.1583 275° West 427 491 26,400 -2,040 Descending Chicago Center
12:23PM 41.4783 -85.3211 275° West 434 499 25,300 -1,620 Descending Chicago Center
12:24PM 41.4894 -85.5161 274° West 430 495 23,100 -2,040 Descending Chicago Center
12:25PM 41.4958 -85.6736 273° West 422 486 21,100 -2,040 Descending Chicago Center
12:26PM 41.5017 -85.8306 273° West 422 486 19,000 -2,040 Descending Chicago Center
12:27PM 41.5072 -85.9839 273° West 416 479 16,900 -2,100 Descending Chicago Center
12:28PM 41.5136 -86.1333 273° West 407 468 14,700 -2,100 Descending Chicago Center
12:29PM 41.5183 -86.2750 273° West 386 444 12,600 -1,860 Descending Chicago Center
12:30PM 41.5228 -86.4114 273° West 373 429 10,900 -1,260 Descending Chicago Center
12:31PM 41.5214 -86.5667 269° West 343 395 10,000 -480 Descending Chicago Center
12:32PM 41.5203 -86.6836 269° West 327 376 10,000 -360 Level Chicago Center
12:33PM 41.5200 -86.7967 270° West 307 353 9,300 -900 Descending Chicago Center
12:34PM 41.5183 -86.9081 269° West 303 349 8,200 -1,260 Descending Chicago Center
12:35PM 41.5175 -87.0222 269° West 307 353 6,700 -1,080 Descending Chicago Center
12:36PM 41.5175 -87.1353 270° West 308 354 6,000 -840 Descending Chicago Center
12:37PM 41.5167 -87.1833 269° West 296 341 5,600 -1,320 Descending Chicago TRACON
12:38PM 41.5167 -87.3167 270° West 288 331 4,200 -840 Descending Chicago TRACON
12:39PM 41.5167 -87.4000 270° West 280 322 4,000 -120 Descending Chicago TRACON
12:39PM 41.5256 -87.4714 279° West 283 326 4,000  Level Chicago Center
12:41PM 41.5331 -87.5758 276° West 283 326 4,000  Level Chicago Center
12:42PM 41.5408 -87.6789 276° West 283 326 4,000  Level Chicago Center
12:43PM 41.5486 -87.7931 275° West 271 312 4,000  Level Chicago Center
12:44PM 41.5544 -87.8656 276° West 225 259 4,000  Level Chicago Center
12:45PM 41.5378 -87.9347 252° West 210 242 4,000 -300 Level Chicago Center
12:46PM 41.5625 -87.9942 299° West 201 231 3,400 -780 Descending Chicago Center
12:47PM 41.6103 -87.9742 17° North 169 194 2,500 -480 Descending Chicago Center
12:48PM 41.6411 -87.9350 44° Northeast 158 182 2,500  Level Chicago Center
12:49PM 41.6731 -87.8936 44° Northeast 159 183 2,500  Level Chicago Center
12:50PM 41.7064 -87.8517 43° Northeast 162 186 2,500 -360 Level Chicago Center
12:51PM 41.7333 -87.8167 44° Northeast 134 154 1,800 -720 Descending Chicago TRACON
12:52PM 41.7667 -87.7833 37° Northeast 121 139 1,100 -660 Descending Chicago TRACON